Time;durP1;ratioP1;P1;durP2;ratioP2;P2;SDS_P1;SDS_P2;PMS_P1;PMS_P2;Temp;Humidity;BMP_temperature;BMP_pressure;BME280_temperature;BME280_humidity;BME280_pressure;Samples;Min_cycle;Max_cycle;Signal;HPM_P1;HPM_P2
2023/02/17 00:01:09;;;;;;;8.95;5.40;;;12.20;88.70;;;;;;6149800;28;20043;-76
2023/02/17 00:04:12;;;;;;;9.35;5.82;;;12.20;88.80;;;;;;6149179;28;20410;-76
2023/02/17 00:07:14;;;;;;;7.15;5.75;;;12.20;88.80;;;;;;6150163;28;20560;-77
2023/02/17 00:10:16;;;;;;;8.57;5.50;;;12.20;88.70;;;;;;6148891;28;20055;-76
2023/02/17 00:13:18;;;;;;;6.13;5.35;;;12.20;88.60;;;;;;6149671;28;20043;-76
2023/02/17 00:16:22;;;;;;;6.15;4.85;;;12.20;88.60;;;;;;6148823;28;20413;-76
2023/02/17 00:19:25;;;;;;;7.45;5.57;;;12.20;88.60;;;;;;6149481;29;20050;-76
2023/02/17 00:22:27;;;;;;;6.70;5.55;;;12.20;88.60;;;;;;6149143;28;20561;-77
2023/02/17 00:25:29;;;;;;;12.68;6.05;;;12.10;88.60;;;;;;6148786;28;20066;-76
2023/02/17 00:28:30;;;;;;;5.88;5.28;;;12.00;88.70;;;;;;6149303;28;20055;-76
2023/02/17 00:31:32;;;;;;;12.20;5.88;;;12.00;88.90;;;;;;6149139;28;20055;-76
2023/02/17 00:34:35;;;;;;;5.90;4.60;;;12.00;88.90;;;;;;6148578;28;20058;-76
2023/02/17 00:37:37;;;;;;;10.55;6.53;;;12.00;89.00;;;;;;6148910;28;20058;-76
2023/02/17 00:40:40;;;;;;;9.25;5.63;;;11.90;89.00;;;;;;6148756;28;20043;-76
2023/02/17 00:43:42;;;;;;;8.55;4.70;;;11.90;89.10;;;;;;6155993;28;20389;-77
2023/02/17 00:46:44;;;;;;;7.68;4.93;;;11.80;89.20;;;;;;6172648;28;20766;-76
2023/02/17 00:49:48;;;;;;;10.75;5.63;;;11.80;89.30;;;;;;6172594;28;20054;-76
2023/02/17 00:52:49;;;;;;;7.78;4.85;;;11.80;89.50;;;;;;6173383;28;20600;-76
2023/02/17 00:55:51;;;;;;;6.25;5.38;;;11.70;89.60;;;;;;6172887;28;20043;-76
2023/02/17 00:58:53;;;;;;;9.02;6.20;;;11.80;89.70;;;;;;6173068;28;20050;-77
2023/02/17 01:01:55;;;;;;;9.18;5.38;;;11.90;89.50;;;;;;6172830;28;20055;-76
2023/02/17 01:04:57;;;;;;;11.60;5.03;;;12.00;89.20;;;;;;6172670;28;20047;-77
2023/02/17 01:07:59;;;;;;;8.93;5.32;;;12.10;88.90;;;;;;6172483;28;20065;-76
2023/02/17 01:11:01;;;;;;;8.90;5.22;;;12.20;88.60;;;;;;6172908;28;20055;-76
2023/02/17 01:14:05;;;;;;;6.88;5.53;;;12.20;88.30;;;;;;6172451;28;20101;-76
2023/02/17 01:17:07;;;;;;;5.72;5.13;;;12.30;88.00;;;;;;6172418;28;20050;-77
2023/02/17 01:20:11;;;;;;;10.60;6.00;;;12.30;88.00;;;;;;6172435;28;20535;-76
2023/02/17 01:23:13;;;;;;;8.80;6.00;;;12.20;87.90;;;;;;6172881;28;20420;-76
2023/02/17 01:26:16;;;;;;;6.30;4.75;;;12.30;88.00;;;;;;6158514;28;20122;-76
2023/02/17 01:29:17;;;;;;;6.57;4.35;;;12.30;88.20;;;;;;6147985;28;20055;-77
2023/02/17 01:32:20;;;;;;;6.95;5.53;;;12.20;88.40;;;;;;6148456;28;20047;-76
2023/02/17 01:35:23;;;;;;;6.45;5.22;;;12.10;88.90;;;;;;6135025;28;20099;-76
2023/02/17 01:38:30;;;;;;;6.78;5.10;;;12.00;89.30;;;;;;6141084;28;20059;-76
2023/02/17 01:41:33;;;;;;;13.98;6.70;;;12.00;89.60;;;;;;6145658;28;20051;-77
2023/02/17 01:44:34;;;;;;;6.30;5.45;;;11.90;89.90;;;;;;6156876;28;20134;-76
2023/02/17 01:47:38;;;;;;;7.28;5.80;;;11.80;90.10;;;;;;6151938;28;20421;-76
2023/02/17 01:50:44;;;;;;;10.57;7.43;;;11.80;90.20;;;;;;6151809;28;20417;-76
2023/02/17 01:53:48;;;;;;;11.77;6.75;;;11.60;90.20;;;;;;6149651;28;20062;-76
2023/02/17 01:56:51;;;;;;;9.85;5.60;;;11.60;90.30;;;;;;6152621;28;20390;-76
2023/02/17 01:59:53;;;;;;;6.88;5.25;;;11.60;90.30;;;;;;6152014;28;20057;-76
2023/02/17 02:02:56;;;;;;;8.15;5.53;;;11.60;90.40;;;;;;6152977;29;20058;-76
2023/02/17 02:06:03;;;;;;;11.23;6.20;;;11.60;90.40;;;;;;6151825;28;20058;-76
2023/02/17 02:09:08;;;;;;;11.52;8.32;;;11.70;90.50;;;;;;6150978;28;20145;-77
2023/02/17 02:12:18;;;;;;;6.95;5.60;;;11.70;90.50;;;;;;6151732;28;20536;-76
2023/02/17 02:15:22;;;;;;;9.77;5.80;;;11.70;90.50;;;;;;6152277;29;20054;-76
2023/02/17 02:18:34;;;;;;;10.05;5.18;;;11.80;90.60;;;;;;6151692;28;20420;-77
2023/02/17 02:22:07;;;;;;;6.68;5.43;;;11.90;90.70;;;;;;6151812;28;20047;-76
2023/02/17 02:25:28;;;;;;;9.52;5.85;;;11.90;90.70;;;;;;6150697;28;20043;-76
2023/02/17 02:28:45;;;;;;;12.02;5.72;;;11.90;90.80;;;;;;6151870;28;20075;-76
2023/02/17 02:31:59;;;;;;;12.68;7.30;;;11.90;90.90;;;;;;6151975;28;20051;-76
2023/02/17 02:35:16;;;;;;;6.57;4.80;;;11.90;91.10;;;;;;6152264;29;20055;-76
2023/02/17 02:38:31;;;;;;;10.93;6.35;;;12.00;91.40;;;;;;6150527;28;20051;-77
2023/02/17 02:41:37;;;;;;;10.95;6.25;;;11.90;91.60;;;;;;6154537;28;20055;-76
2023/02/17 02:44:39;;;;;;;12.13;6.03;;;11.90;91.80;;;;;;6156434;28;20047;-76
2023/02/17 02:47:49;;;;;;;9.95;6.03;;;11.90;92.10;;;;;;6167783;28;20562;-76
2023/02/17 02:51:20;;;;;;;6.32;4.93;;;11.90;92.00;;;;;;6175232;28;20189;-76
2023/02/17 02:54:34;;;;;;;5.78;4.53;;;11.90;92.50;;;;;;6175375;28;20055;-76
2023/02/17 02:57:45;;;;;;;7.30;5.18;;;11.90;92.40;;;;;;6174569;28;20501;-76
2023/02/17 03:00:54;;;;;;;12.70;5.88;;;11.80;92.60;;;;;;6174803;28;20047;-76
2023/02/17 03:04:04;;;;;;;8.57;5.28;;;11.80;92.70;;;;;;6175183;28;20055;-76
2023/02/17 03:07:20;;;;;;;8.65;5.32;;;11.80;92.80;;;;;;6175629;28;20047;-76
2023/02/17 03:10:22;;;;;;;11.48;5.47;;;11.80;93.00;;;;;;6174781;28;20042;-76
2023/02/17 03:13:24;;;;;;;9.45;4.88;;;11.80;93.20;;;;;;6174486;28;20046;-76
2023/02/17 03:16:25;;;;;;;5.70;4.72;;;11.70;93.30;;;;;;6174982;28;20047;-76
2023/02/17 03:19:28;;;;;;;6.18;4.05;;;11.70;93.60;;;;;;6175121;28;20066;-76
2023/02/17 03:22:36;;;;;;;9.18;4.05;;;11.70;94.00;;;;;;6174318;28;20398;-76
2023/02/17 03:25:38;;;;;;;7.18;5.70;;;11.70;94.60;;;;;;6173658;28;20135;-76
2023/02/17 03:28:39;;;;;;;6.30;3.20;;;11.70;94.90;;;;;;6174329;28;20051;-76
2023/02/17 03:31:41;;;;;;;6.07;2.97;;;11.70;95.30;;;;;;6175141;28;20058;-76
2023/02/17 03:34:43;;;;;;;7.35;2.75;;;11.70;96.10;;;;;;6174324;28;20062;-76
2023/02/17 03:37:46;;;;;;;6.60;3.35;;;11.70;96.80;;;;;;6173270;28;20062;-76
2023/02/17 03:40:49;;;;;;;5.38;2.80;;;11.80;97.10;;;;;;6173881;28;20421;-76
2023/02/17 03:43:51;;;;;;;4.05;3.20;;;11.70;97.30;;;;;;6172479;28;20047;-76
2023/02/17 03:46:53;;;;;;;4.05;2.38;;;11.70;97.80;;;;;;6163243;28;20054;-76
2023/02/17 03:49:54;;;;;;;8.20;3.05;;;11.70;97.70;;;;;;6149666;28;20058;-76
2023/02/17 03:52:59;;;;;;;4.95;2.40;;;11.70;98.00;;;;;;6149307;28;20047;-76
2023/02/17 03:56:01;;;;;;;5.32;3.20;;;11.70;98.20;;;;;;6149866;28;20501;-76
2023/02/17 03:59:03;;;;;;;3.63;2.40;;;11.70;98.60;;;;;;6150203;29;20058;-76
2023/02/17 04:02:05;;;;;;;3.17;2.45;;;11.70;98.80;;;;;;6148626;28;20051;-76
2023/02/17 04:05:08;;;;;;;3.97;3.60;;;11.60;98.90;;;;;;6149861;28;20051;-76
2023/02/17 04:08:12;;;;;;;4.25;3.55;;;11.60;99.10;;;;;;6148208;28;20053;-76
2023/02/17 04:11:14;;;;;;;10.15;5.38;;;11.60;99.30;;;;;;6150135;29;20136;-76
2023/02/17 04:14:16;;;;;;;8.32;4.20;;;11.50;99.40;;;;;;6149904;28;20073;-76
2023/02/17 04:17:18;;;;;;;6.82;3.78;;;11.50;99.40;;;;;;6149268;28;20155;-76
2023/02/17 04:20:19;;;;;;;6.88;5.28;;;11.40;99.40;;;;;;6149549;28;20047;-76
2023/02/17 04:23:23;;;;;;;8.25;6.13;;;11.40;99.40;;;;;;6149809;29;20409;-76
2023/02/17 04:26:25;;;;;;;9.40;6.05;;;11.40;99.20;;;;;;6148949;28;20039;-76
2023/02/17 04:29:26;;;;;;;8.52;5.35;;;11.30;98.90;;;;;;6149192;28;20424;-76
2023/02/17 04:32:30;;;;;;;9.20;5.95;;;11.30;98.70;;;;;;6149146;28;20054;-76
2023/02/17 04:35:32;;;;;;;7.50;5.32;;;11.30;98.60;;;;;;6147721;28;20421;-76
2023/02/17 04:38:35;;;;;;;5.85;4.50;;;11.20;98.10;;;;;;6147847;28;20047;-76
2023/02/17 04:41:37;;;;;;;7.75;5.53;;;11.20;97.90;;;;;;6149523;28;20051;-76
2023/02/17 04:44:38;;;;;;;5.78;4.53;;;11.20;97.70;;;;;;6148713;28;20047;-76
2023/02/17 04:47:40;;;;;;;7.65;5.07;;;11.20;97.50;;;;;;6156174;28;20051;-76
2023/02/17 04:50:42;;;;;;;7.78;4.75;;;11.30;97.30;;;;;;6172536;28;20061;-76
2023/02/17 04:53:45;;;;;;;5.15;4.53;;;11.30;97.20;;;;;;6173223;28;20057;-76
2023/02/17 04:56:47;;;;;;;6.82;4.88;;;11.30;97.10;;;;;;6172681;28;20042;-76
2023/02/17 04:59:48;;;;;;;5.50;4.22;;;11.30;97.00;;;;;;6172609;28;20171;-76
2023/02/17 05:02:50;;;;;;;5.55;4.57;;;11.30;97.00;;;;;;6172785;28;20055;-76
2023/02/17 05:05:52;;;;;;;5.60;4.13;;;11.30;97.00;;;;;;6172703;28;20062;-76
2023/02/17 05:08:55;;;;;;;9.57;4.93;;;11.30;97.00;;;;;;6170797;28;20054;-76
2023/02/17 05:11:57;;;;;;;5.53;4.82;;;11.30;97.10;;;;;;6172359;28;20051;-76
2023/02/17 05:14:59;;;;;;;7.07;3.92;;;11.30;97.10;;;;;;6173227;28;20054;-76
2023/02/17 05:18:01;;;;;;;6.35;5.75;;;11.20;97.30;;;;;;6172292;28;20048;-76
2023/02/17 05:21:03;;;;;;;13.68;5.35;;;11.20;97.40;;;;;;6176016;28;20051;-76
2023/02/17 05:24:07;;;;;;;7.20;6.38;;;11.20;97.50;;;;;;6177274;28;20105;-76
2023/02/17 05:27:09;;;;;;;6.22;4.15;;;11.20;97.70;;;;;;6177731;28;20047;-76
2023/02/17 05:30:12;;;;;;;4.47;4.13;;;11.30;98.00;;;;;;6177076;28;20129;-76
2023/02/17 05:33:13;;;;;;;4.30;3.67;;;11.20;98.20;;;;;;6177920;28;20047;-76
2023/02/17 05:36:15;;;;;;;9.60;4.45;;;11.30;98.80;;;;;;6177325;28;20051;-76
2023/02/17 05:39:18;;;;;;;5.15;2.97;;;11.30;99.20;;;;;;6176698;28;20460;-76
2023/02/17 05:42:21;;;;;;;3.50;2.47;;;11.30;99.90;;;;;;6177387;28;20047;-76
2023/02/17 05:45:23;;;;;;;5.95;2.53;;;11.30;99.90;;;;;;6175329;28;20054;-76
2023/02/17 05:48:25;;;;;;;8.00;3.10;;;11.30;99.90;;;;;;6168734;28;20517;-76
2023/02/17 05:51:27;;;;;;;3.92;3.00;;;11.30;99.90;;;;;;6174827;28;20063;-76
2023/02/17 05:54:30;;;;;;;5.13;2.60;;;11.30;99.90;;;;;;6176615;28;20054;-76
2023/02/17 05:57:32;;;;;;;8.88;2.45;;;11.30;99.90;;;;;;6175864;28;20050;-76
2023/02/17 06:00:34;;;;;;;3.28;2.88;;;11.40;99.90;;;;;;6159882;28;20058;-76
2023/02/17 06:03:36;;;;;;;3.28;2.80;;;11.30;99.90;;;;;;6154504;29;20567;-78
2023/02/17 06:06:37;;;;;;;3.95;3.03;;;11.40;99.90;;;;;;6155273;28;20048;-78
2023/02/17 06:09:42;;;;;;;3.03;2.47;;;11.40;99.90;;;;;;6153936;28;20051;-77
2023/02/17 06:12:46;;;;;;;4.32;3.05;;;11.40;99.90;;;;;;6153192;28;20062;-77
2023/02/17 06:15:48;;;;;;;5.93;2.92;;;11.50;99.90;;;;;;6153805;28;20047;-77
2023/02/17 06:18:50;;;;;;;5.43;3.67;;;11.50;99.90;;;;;;6153996;29;20054;-77
2023/02/17 06:21:56;;;;;;;3.78;2.50;;;11.50;99.90;;;;;;6153150;28;20051;-77
2023/02/17 06:25:04;;;;;;;4.10;2.88;;;11.50;99.90;;;;;;6154281;28;20532;-78
2023/02/17 06:28:06;;;;;;;3.15;2.75;;;11.50;99.90;;;;;;6154969;28;20058;-78
2023/02/17 06:31:08;;;;;;;3.00;2.38;;;11.60;99.90;;;;;;6153148;28;20425;-78
2023/02/17 06:34:10;;;;;;;3.75;2.47;;;11.60;99.90;;;;;;6154053;28;20058;-78
2023/02/17 06:37:12;;;;;;;5.40;3.25;;;11.60;99.90;;;;;;6154141;28;20070;-78
2023/02/17 06:40:17;;;;;;;5.78;3.38;;;11.60;99.90;;;;;;6152451;28;20051;-78
2023/02/17 06:43:31;;;;;;;4.88;3.22;;;11.60;99.90;;;;;;6153292;28;20057;-78
2023/02/17 06:46:49;;;;;;;6.40;3.50;;;11.60;99.90;;;;;;6153171;28;20058;-78
2023/02/17 06:49:54;;;;;;;9.45;3.83;;;11.60;99.90;;;;;;6165711;28;20061;-78
2023/02/17 06:52:56;;;;;;;7.57;4.88;;;11.60;99.90;;;;;;6154371;28;20055;-78
2023/02/17 06:55:59;;;;;;;6.18;3.92;;;11.60;99.90;;;;;;6154595;28;20055;-78
2023/02/17 06:59:03;;;;;;;5.40;3.80;;;11.50;99.90;;;;;;6153937;28;20054;-78
2023/02/17 07:02:05;;;;;;;6.75;3.65;;;11.60;99.90;;;;;;6133525;28;20056;-78
2023/02/17 07:05:17;;;;;;;7.18;6.55;;;11.60;99.90;;;;;;6143371;28;20081;-78
2023/02/17 07:08:18;;;;;;;7.60;4.75;;;11.60;99.90;;;;;;6177127;28;20062;-78
2023/02/17 07:11:46;;;;;;;6.43;3.85;;;11.60;99.90;;;;;;6178517;28;20055;-78
2023/02/17 07:15:00;;;;;;;4.53;3.45;;;11.60;99.90;;;;;;6172913;28;20529;-78
2023/02/17 07:18:06;;;;;;;4.47;3.97;;;11.60;99.90;;;;;;6174632;28;20053;-78
2023/02/17 07:21:11;;;;;;;6.05;4.03;;;11.70;99.90;;;;;;6173832;28;20047;-78
2023/02/17 07:24:15;;;;;;;4.53;3.08;;;11.70;99.90;;;;;;6174539;28;20587;-78
2023/02/17 07:27:20;;;;;;;4.03;3.20;;;11.80;99.90;;;;;;6176389;28;20050;-78
2023/02/17 07:30:26;;;;;;;6.38;3.92;;;11.80;99.90;;;;;;6173238;28;20061;-78
2023/02/17 07:33:30;;;;;;;4.63;3.05;;;11.90;99.90;;;;;;6175374;28;20089;-78
2023/02/17 07:36:35;;;;;;;8.75;4.40;;;11.90;99.90;;;;;;6175809;28;20047;-77
2023/02/17 07:39:39;;;;;;;4.45;3.22;;;12.00;99.90;;;;;;6177623;28;20097;-78
2023/02/17 07:42:43;;;;;;;5.70;3.70;;;12.00;99.90;;;;;;6183146;28;20054;-78
2023/02/17 07:45:45;;;;;;;8.45;2.97;;;12.00;99.90;;;;;;6168765;28;20050;-78
2023/02/17 07:48:47;;;;;;;6.70;4.40;;;12.00;99.90;;;;;;6179154;28;20054;-78
2023/02/17 07:51:49;;;;;;;5.53;4.18;;;12.10;99.90;;;;;;6192774;28;20054;-79
2023/02/17 07:54:52;;;;;;;6.97;4.18;;;12.10;99.90;;;;;;6192262;28;20054;-78
2023/02/17 07:57:55;;;;;;;6.47;4.32;;;12.00;99.90;;;;;;6175385;28;20053;-78
2023/02/17 08:00:58;;;;;;;5.88;4.25;;;12.00;99.90;;;;;;6173985;28;20138;-78
2023/02/17 08:04:00;;;;;;;8.73;7.03;;;12.10;99.90;;;;;;6163957;28;20551;-77
2023/02/17 08:07:02;;;;;;;4.82;3.80;;;12.00;99.90;;;;;;6174007;28;20390;-78
2023/02/17 08:13:38;;;;;;;8.40;4.35;;;11.90;99.90;;;;;;6173674;28;20047;-78
2023/02/17 08:16:49;;;;;;;6.22;5.10;;;11.90;99.90;;;;;;6174038;28;20074;-78
2023/02/17 08:19:53;;;;;;;9.38;4.75;;;11.90;99.90;;;;;;6172997;28;20086;-78
2023/02/17 08:23:04;;;;;;;5.95;4.90;;;11.80;99.90;;;;;;6174363;28;20496;-77
2023/02/17 08:26:12;;;;;;;7.88;4.70;;;11.80;99.90;;;;;;6173745;28;20058;-78
2023/02/17 08:29:19;;;;;;;4.60;3.95;;;11.80;99.90;;;;;;6173574;28;20079;-78
2023/02/17 08:32:26;;;;;;;7.50;4.97;;;11.80;99.90;;;;;;6173329;28;20055;-78
2023/02/17 08:35:28;;;;;;;10.00;5.65;;;11.70;99.90;;;;;;6176102;28;20523;-78
2023/02/17 08:38:50;;;;;;;6.68;5.22;;;11.60;99.90;;;;;;6176698;28;20057;-79
2023/02/17 08:42:12;;;;;;;6.47;4.68;;;11.50;99.90;;;;;;6164346;28;20090;-77
2023/02/17 08:45:19;;;;;;;8.20;5.03;;;11.40;99.90;;;;;;6167060;28;20413;-78
2023/02/17 08:49:02;;;;;;;9.25;5.82;;;11.40;99.90;;;;;;6174658;28;20511;-78
2023/02/17 08:52:31;;;;;;;5.97;4.47;;;11.30;99.90;;;;;;6597074;23;20636;-80
2023/02/17 08:55:37;;;;;;;;;;;11.40;99.90;;;;;;6153969;28;20066;-78
2023/02/17 09:02:17;;;;;;;7.68;3.85;;;11.50;99.90;;;;;;6144078;28;20062;-78
2023/02/17 09:05:25;;;;;;;12.38;5.00;;;11.50;99.90;;;;;;6155772;28;20051;-78
2023/02/17 09:08:27;;;;;;;5.22;4.35;;;11.60;99.90;;;;;;6159323;28;20054;-80
2023/02/17 09:12:07;;;;;;;5.43;3.53;;;11.50;99.90;;;;;;6153685;29;20058;-78
2023/02/17 09:19:02;;;;;;;5.78;3.92;;;11.60;99.90;;;;;;6160747;28;20043;-80
2023/02/17 09:22:13;;;;;;;4.03;3.15;;;11.70;99.90;;;;;;6160577;28;20094;-78
2023/02/17 09:25:25;;;;;;;6.20;3.97;;;11.80;99.90;;;;;;6154307;28;20067;-78
2023/02/17 09:28:39;;;;;;;5.72;3.63;;;11.90;99.90;;;;;;6152803;28;20694;-78
2023/02/17 09:32:00;;;;;;;7.55;5.00;;;11.90;99.90;;;;;;6153603;29;20444;-78
2023/02/17 09:35:22;;;;;;;4.50;3.08;;;11.90;99.90;;;;;;6153417;28;20058;-79
2023/02/17 09:38:46;;;;;;;12.95;3.75;;;12.00;99.90;;;;;;6154798;28;20501;-78
2023/02/17 09:42:03;;;;;;;5.53;3.97;;;12.00;99.90;;;;;;6157285;28;20051;-78
2023/02/17 09:45:30;;;;;;;6.53;3.67;;;12.00;99.90;;;;;;6153939;28;20057;-77
2023/02/17 09:48:48;;;;;;;5.00;3.20;;;12.10;99.90;;;;;;6151450;28;20048;-78
2023/02/17 09:52:08;;;;;;;3.95;3.13;;;12.20;99.90;;;;;;6146111;28;20070;-78
2023/02/17 09:55:32;;;;;;;5.00;3.33;;;12.20;99.90;;;;;;6162156;28;20051;-78
2023/02/17 09:58:40;;;;;;;4.97;3.50;;;12.30;99.90;;;;;;6150789;28;20062;-79
2023/02/17 10:01:44;;;;;;;4.25;3.33;;;12.20;99.90;;;;;;6140601;28;20556;-78
2023/02/17 10:04:52;;;;;;;4.15;3.65;;;12.30;99.90;;;;;;6151156;28;20047;-77
2023/02/17 10:11:46;;;;;;;4.63;3.30;;;12.40;99.90;;;;;;6141184;29;19985;-78
2023/02/17 10:14:53;;;;;;;5.55;2.97;;;12.50;99.90;;;;;;6157818;29;20051;-78
2023/02/17 10:18:00;;;;;;;4.05;3.08;;;12.60;99.90;;;;;;6155106;28;20058;-78
2023/02/17 10:21:06;;;;;;;4.15;3.25;;;12.60;99.90;;;;;;6154685;28;20054;-78
2023/02/17 10:24:08;;;;;;;4.93;2.85;;;12.70;99.90;;;;;;6156062;29;20470;-78
2023/02/17 10:27:37;;;;;;;8.60;3.88;;;12.70;99.90;;;;;;6156975;29;20055;-79
2023/02/17 10:30:53;;;;;;;4.78;4.32;;;12.80;99.90;;;;;;6144255;28;20141;-78
2023/02/17 10:34:02;;;;;;;7.35;3.40;;;12.90;99.90;;;;;;6156116;29;20125;-78
2023/02/17 10:37:10;;;;;;;2.95;2.67;;;13.00;99.90;;;;;;6153968;29;20059;-78
2023/02/17 10:40:16;;;;;;;4.22;2.53;;;13.00;99.90;;;;;;6154288;28;20107;-78
2023/02/17 10:43:25;;;;;;;4.05;2.58;;;13.10;99.90;;;;;;6155246;29;20054;-78
2023/02/17 10:46:30;;;;;;;6.55;2.58;;;13.10;99.90;;;;;;6155236;28;20090;-77
2023/02/17 10:49:36;;;;;;;7.95;3.90;;;13.20;99.90;;;;;;6154790;28;20050;-77
2023/02/17 10:52:41;;;;;;;5.20;3.40;;;13.40;99.90;;;;;;6157467;28;20043;-78
2023/02/17 10:55:52;;;;;;;5.18;2.85;;;13.40;99.90;;;;;;6169959;28;20413;-78
2023/02/17 10:59:05;;;;;;;6.53;3.08;;;13.50;99.90;;;;;;6178996;28;20480;-78
2023/02/17 11:02:17;;;;;;;4.57;3.58;;;13.40;99.90;;;;;;6178150;28;20094;-77
2023/02/17 11:05:25;;;;;;;4.40;2.92;;;13.50;99.90;;;;;;6177899;28;20129;-78
2023/02/17 11:08:37;;;;;;;6.72;2.80;;;13.50;99.90;;;;;;6165176;28;20043;-78
2023/02/17 11:11:50;;;;;;;3.45;3.15;;;13.60;99.90;;;;;;6148726;29;20061;-77
2023/02/17 11:14:57;;;;;;;4.57;3.10;;;13.60;99.90;;;;;;6154531;29;20063;-78
2023/02/17 11:18:01;;;;;;;7.53;2.92;;;13.60;99.90;;;;;;6153255;28;20528;-78
2023/02/17 11:21:07;;;;;;;4.03;2.97;;;13.50;99.90;;;;;;6153126;28;20449;-78
2023/02/17 11:24:12;;;;;;;3.63;3.33;;;13.40;99.90;;;;;;6153989;28;20043;-78
2023/02/17 11:27:24;;;;;;;8.27;4.28;;;13.40;99.90;;;;;;6154870;29;20083;-78
2023/02/17 11:30:31;;;;;;;4.97;3.83;;;13.30;99.90;;;;;;6152865;28;20047;-78
2023/02/17 11:33:36;;;;;;;5.63;2.45;;;13.30;99.90;;;;;;6153191;28;20055;-78
2023/02/17 11:36:38;;;;;;;3.17;2.90;;;13.30;99.90;;;;;;6152476;28;20053;-78
2023/02/17 11:39:42;;;;;;;3.88;3.22;;;13.30;99.90;;;;;;6152972;29;20130;-78
2023/02/17 11:42:44;;;;;;;4.00;3.42;;;13.20;99.90;;;;;;6151869;28;20051;-78
2023/02/17 11:45:55;;;;;;;3.72;3.40;;;13.20;99.90;;;;;;6155271;28;20047;-78
2023/02/17 11:49:24;;;;;;;6.60;3.50;;;13.20;99.90;;;;;;6157723;28;20039;-77
2023/02/17 11:52:42;;;;;;;5.03;3.10;;;13.10;99.90;;;;;;6159528;28;20140;-78
2023/02/17 11:55:54;;;;;;;4.57;3.85;;;13.00;99.90;;;;;;6161422;28;20062;-78
2023/02/17 11:59:21;;;;;;;11.45;4.25;;;13.00;99.90;;;;;;6155088;28;20054;-78
2023/02/17 12:02:36;;;;;;;4.65;3.17;;;13.10;99.90;;;;;;6155120;28;20126;-78
2023/02/17 12:05:53;;;;;;;7.88;5.05;;;13.10;99.90;;;;;;6156145;28;20418;-78
2023/02/17 12:09:06;;;;;;;5.50;5.10;;;13.10;99.90;;;;;;6154608;28;20042;-78
2023/02/17 12:12:16;;;;;;;6.35;3.80;;;13.20;99.90;;;;;;6157169;28;20046;-78
2023/02/17 12:15:34;;;;;;;5.43;3.92;;;13.30;99.90;;;;;;6156288;29;20094;-79
2023/02/17 12:18:55;;;;;;;5.32;3.47;;;13.40;99.90;;;;;;6155212;28;20441;-78
2023/02/17 12:22:07;;;;;;;7.13;3.85;;;13.60;99.90;;;;;;6152756;28;20047;-77
2023/02/17 12:25:24;;;;;;;3.67;3.38;;;13.60;99.90;;;;;;6152372;28;20059;-78
2023/02/17 12:28:42;;;;;;;4.50;3.70;;;13.70;99.90;;;;;;6156032;28;20051;-77
2023/02/17 12:32:10;;;;;;;6.17;4.07;;;13.80;99.90;;;;;;6152058;29;20051;-78
2023/02/17 12:35:20;;;;;;;9.50;4.45;;;13.80;99.90;;;;;;6155413;29;20051;-80
2023/02/17 12:38:26;;;;;;;6.63;4.97;;;13.80;99.90;;;;;;6152392;28;20142;-78
2023/02/17 12:41:34;;;;;;;7.57;3.72;;;13.70;99.90;;;;;;6154268;28;20047;-78
2023/02/17 12:44:40;;;;;;;12.38;11.10;;;13.70;99.90;;;;;;6155484;28;20051;-78
2023/02/17 12:47:50;;;;;;;7.38;5.82;;;13.70;99.90;;;;;;6154730;29;20054;-78
2023/02/17 12:50:59;;;;;;;10.48;7.60;;;13.80;99.90;;;;;;6156349;29;20051;-78
2023/02/17 12:54:06;;;;;;;10.23;6.82;;;13.90;99.90;;;;;;6152610;28;20548;-77
2023/02/17 12:57:16;;;;;;;7.20;4.95;;;14.00;99.90;;;;;;6166621;28;20046;-78
2023/02/17 13:00:21;;;;;;;50.80;21.88;;;14.10;99.90;;;;;;6159432;28;20043;-77
2023/02/17 13:03:24;;;;;;;6.15;3.53;;;14.00;99.90;;;;;;6153056;29;20062;-79
2023/02/17 13:06:35;;;;;;;23.73;14.20;;;14.00;99.90;;;;;;6153256;29;20058;-78
2023/02/17 13:09:39;;;;;;;9.38;5.43;;;14.00;99.90;;;;;;6152024;28;20501;-78
2023/02/17 13:12:42;;;;;;;4.65;4.22;;;14.10;99.90;;;;;;6151306;28;20437;-78
2023/02/17 13:15:45;;;;;;;9.60;6.47;;;14.10;99.90;;;;;;6152447;29;20051;-78
2023/02/17 13:18:49;;;;;;;19.33;11.10;;;14.30;99.90;;;;;;6151794;29;20062;-78
2023/02/17 13:21:56;;;;;;;5.45;4.60;;;14.40;99.90;;;;;;6151640;28;20135;-77
2023/02/17 13:24:58;;;;;;;18.98;8.98;;;14.40;99.90;;;;;;6152822;28;20075;-78
2023/02/17 13:28:01;;;;;;;14.73;6.35;;;14.40;99.90;;;;;;6153972;28;20063;-79
2023/02/17 13:31:16;;;;;;;16.42;8.30;;;14.30;99.90;;;;;;6154462;29;20205;-78
2023/02/17 13:34:31;;;;;;;5.05;3.85;;;14.30;99.90;;;;;;6154369;28;20189;-78
2023/02/17 13:37:43;;;;;;;7.57;3.90;;;14.40;99.90;;;;;;6154562;28;20532;-78
2023/02/17 13:40:45;;;;;;;6.32;3.13;;;14.30;99.90;;;;;;6158403;28;20047;-79
2023/02/17 13:43:48;;;;;;;10.65;7.45;;;14.20;99.90;;;;;;6157864;28;20416;-78
2023/02/17 13:46:51;;;;;;;6.82;3.95;;;14.10;99.90;;;;;;6162127;29;20063;-77
2023/02/17 13:49:54;;;;;;;5.60;4.20;;;14.00;99.90;;;;;;6159544;28;20055;-77
2023/02/17 13:52:58;;;;;;;6.90;4.43;;;13.90;99.90;;;;;;6159984;28;20402;-78
2023/02/17 13:56:03;;;;;;;7.40;4.68;;;13.90;99.90;;;;;;6163233;28;20585;-78
2023/02/17 13:59:10;;;;;;;10.38;6.45;;;13.80;99.90;;;;;;6161287;28;20083;-77
2023/02/17 14:02:19;;;;;;;6.82;5.55;;;13.80;99.90;;;;;;6160458;28;20047;-77
2023/02/17 14:05:23;;;;;;;7.95;5.18;;;13.60;99.90;;;;;;6160413;28;20484;-78
2023/02/17 14:08:33;;;;;;;7.20;5.82;;;13.60;99.90;;;;;;6161494;28;20051;-78
2023/02/17 14:11:36;;;;;;;8.45;4.95;;;13.50;99.90;;;;;;6153230;29;20043;-77
2023/02/17 14:14:40;;;;;;;9.10;5.13;;;13.40;99.90;;;;;;6160218;29;20055;-78
2023/02/17 14:17:44;;;;;;;10.55;5.28;;;13.40;99.90;;;;;;6159612;28;20051;-78
2023/02/17 14:20:46;;;;;;;6.55;4.28;;;13.40;99.90;;;;;;6142590;29;20043;-77
2023/02/17 14:23:51;;;;;;;6.47;4.35;;;13.50;99.90;;;;;;6160737;28;20051;-77
2023/02/17 14:26:59;;;;;;;6.93;5.13;;;13.60;99.90;;;;;;6161294;29;20055;-78
2023/02/17 14:30:00;;;;;;;7.87;5.27;;;13.50;99.90;;;;;;6159951;28;20682;-77
2023/02/17 14:33:09;;;;;;;8.02;5.68;;;13.60;99.90;;;;;;6159504;29;20054;-78
2023/02/17 14:36:10;;;;;;;7.25;5.40;;;13.60;99.90;;;;;;6155450;29;20051;-77
2023/02/17 14:39:15;;;;;;;8.93;5.57;;;13.70;99.90;;;;;;6156365;29;20098;-78
2023/02/17 14:42:18;;;;;;;7.20;5.50;;;13.70;99.90;;;;;;6154340;28;20054;-78
2023/02/17 14:45:25;;;;;;;6.75;4.60;;;13.80;99.90;;;;;;6154330;28;20047;-78
2023/02/17 14:48:28;;;;;;;7.93;5.53;;;13.80;99.90;;;;;;6153375;28;20047;-78
2023/02/17 14:51:34;;;;;;;8.00;4.75;;;13.80;99.90;;;;;;6154066;28;20054;-78
2023/02/17 14:54:38;;;;;;;8.77;5.47;;;13.90;99.90;;;;;;6154745;28;20051;-79
2023/02/17 14:57:40;;;;;;;5.57;4.82;;;13.90;99.90;;;;;;6160269;28;20146;-77
2023/02/17 15:00:42;;;;;;;8.75;5.28;;;13.90;99.90;;;;;;6152176;28;20066;-78
2023/02/17 15:03:46;;;;;;;6.05;4.35;;;13.80;99.90;;;;;;6156475;29;20051;-79
2023/02/17 15:06:50;;;;;;;8.55;4.53;;;13.80;99.90;;;;;;6155777;29;20062;-79
2023/02/17 15:09:53;;;;;;;6.15;5.28;;;13.80;99.90;;;;;;6154406;28;20146;-78
2023/02/17 15:12:56;;;;;;;10.52;5.45;;;13.80;99.90;;;;;;6154993;28;20054;-78
2023/02/17 15:15:57;;;;;;;8.90;4.95;;;13.80;99.90;;;;;;6154301;28;20055;-79
2023/02/17 15:18:59;;;;;;;6.15;4.50;;;13.90;99.90;;;;;;6154623;29;20058;-78
2023/02/17 15:22:02;;;;;;;10.27;5.90;;;13.90;99.90;;;;;;6153830;28;20043;-79
2023/02/17 15:25:12;;;;;;;17.15;13.00;;;13.90;99.90;;;;;;6154677;28;20062;-78
2023/02/17 15:28:15;;;;;;;7.82;5.82;;;13.90;99.90;;;;;;6156909;28;20050;-79
2023/02/17 15:31:19;;;;;;;9.45;5.72;;;13.90;99.90;;;;;;6156147;29;20043;-80
2023/02/17 15:34:23;;;;;;;8.88;5.63;;;13.90;99.90;;;;;;6156569;28;20050;-80
2023/02/17 15:37:25;;;;;;;13.15;5.38;;;13.90;99.90;;;;;;6157302;28;20043;-80
2023/02/17 15:40:29;;;;;;;7.72;5.30;;;13.90;99.90;;;;;;6154646;28;20409;-79
2023/02/17 15:43:34;;;;;;;6.70;4.63;;;13.90;99.90;;;;;;6154932;29;20500;-79
2023/02/17 15:46:37;;;;;;;10.63;4.85;;;13.80;99.90;;;;;;6154705;28;20054;-78
2023/02/17 15:49:39;;;;;;;8.43;5.53;;;13.90;99.90;;;;;;6152587;28;20102;-78
2023/02/17 15:52:41;;;;;;;5.22;4.13;;;13.90;99.90;;;;;;6154365;28;20047;-79
2023/02/17 15:55:45;;;;;;;7.28;4.53;;;13.90;99.90;;;;;;6154211;29;20051;-80
2023/02/17 15:58:47;;;;;;;6.47;4.43;;;13.90;99.90;;;;;;6159459;28;20055;-78
2023/02/17 16:01:49;;;;;;;10.20;5.10;;;13.90;99.90;;;;;;6153137;28;20393;-79
2023/02/17 16:04:51;;;;;;;6.65;4.75;;;13.90;99.90;;;;;;6154021;28;20055;-78
2023/02/17 16:07:53;;;;;;;7.88;4.85;;;13.90;99.90;;;;;;6153343;28;20074;-79
2023/02/17 16:10:56;;;;;;;13.07;4.35;;;13.90;99.90;;;;;;6153058;29;20051;-79
2023/02/17 16:13:58;;;;;;;4.93;4.13;;;13.90;99.90;;;;;;6153582;28;20050;-79
2023/02/17 16:17:00;;;;;;;4.70;4.20;;;13.80;99.90;;;;;;6155100;28;20058;-79
2023/02/17 16:20:02;;;;;;;7.15;3.95;;;13.80;99.90;;;;;;6154243;28;20043;-79
2023/02/17 16:23:04;;;;;;;6.38;3.50;;;13.80;99.90;;;;;;6155941;29;20055;-79